Time;durP1;ratioP1;P1;durP2;ratioP2;P2;SDS_P1;SDS_P2;PMS_P1;PMS_P2;Temp;Humidity;BMP_temperature;BMP_pressure;BME280_temperature;BME280_humidity;BME280_pressure;Samples;Min_cycle;Max_cycle;Signal;HPM_P1;HPM_P2
2021/11/11 00:00:25;;;;;;;51.30;24.60;;;-0.60;99.90;;;;;;4124751;28;20327;-60
2021/11/11 00:02:26;;;;;;;50.13;24.40;;;-0.60;99.90;;;;;;4121204;28;20769;-61
2021/11/11 00:04:28;;;;;;;54.87;24.00;;;-0.60;99.90;;;;;;4106764;28;20276;-60
2021/11/11 00:06:29;;;;;;;46.03;23.30;;;-0.60;99.90;;;;;;4109372;28;21001;-62
2021/11/11 00:08:30;;;;;;;49.33;22.57;;;-0.60;99.90;;;;;;4107675;28;20824;-63
2021/11/11 00:10:32;;;;;;;50.63;22.87;;;-0.50;99.90;;;;;;4109050;28;20273;-60
2021/11/11 00:12:34;;;;;;;51.50;23.00;;;-0.50;99.90;;;;;;4108291;28;20300;-61
2021/11/11 00:14:35;;;;;;;51.23;22.17;;;-0.50;99.90;;;;;;4109456;28;20276;-61
2021/11/11 00:16:36;;;;;;;49.87;22.93;;;-0.60;99.90;;;;;;4108196;28;20269;-61
2021/11/11 00:18:37;;;;;;;52.07;23.33;;;-0.60;99.90;;;;;;4109695;28;20762;-60
2021/11/11 00:20:39;;;;;;;46.80;21.63;;;-0.70;99.90;;;;;;4107925;28;20749;-61
2021/11/11 00:22:42;;;;;;;48.17;22.37;;;-0.60;99.90;;;;;;4109401;28;20351;-62
2021/11/11 00:24:43;;;;;;;49.47;23.10;;;-0.60;99.90;;;;;;4107265;28;20281;-61
2021/11/11 00:26:45;;;;;;;52.03;23.50;;;-0.60;99.90;;;;;;4109346;28;20277;-59
2021/11/11 00:28:46;;;;;;;47.07;23.23;;;-0.50;99.90;;;;;;4113223;28;20276;-60
2021/11/11 00:30:47;;;;;;;52.10;21.90;;;-0.50;99.90;;;;;;4122832;28;20280;-59
2021/11/11 00:32:52;;;;;;;51.43;22.70;;;-0.50;99.90;;;;;;4124388;28;20268;-61
2021/11/11 00:34:53;;;;;;;55.17;23.10;;;-0.40;99.90;;;;;;4124008;28;20350;-64
2021/11/11 00:36:54;;;;;;;52.90;23.33;;;-0.40;99.90;;;;;;4125071;28;20404;-62
2021/11/11 00:38:55;;;;;;;45.07;22.83;;;-0.40;99.90;;;;;;4123314;28;20775;-63
2021/11/11 00:40:57;;;;;;;46.57;22.17;;;-0.40;99.90;;;;;;4125349;28;20795;-60
2021/11/11 00:42:59;;;;;;;70.73;31.63;;;-0.50;99.90;;;;;;4123125;28;20358;-60
2021/11/11 00:45:01;;;;;;;52.63;24.90;;;-0.50;99.90;;;;;;4125412;28;20264;-62
2021/11/11 00:47:03;;;;;;;58.60;27.40;;;-0.50;99.90;;;;;;4124082;28;20284;-62
2021/11/11 00:49:07;;;;;;;64.97;28.90;;;-0.60;99.90;;;;;;4125388;28;20334;-62
2021/11/11 00:51:08;;;;;;;62.07;28.03;;;-0.60;99.90;;;;;;4123209;28;20271;-60
2021/11/11 00:53:10;;;;;;;75.60;33.83;;;-0.60;99.90;;;;;;4124583;28;20669;-62
2021/11/11 00:55:11;;;;;;;74.93;32.80;;;-0.60;99.90;;;;;;4123336;28;20272;-61
2021/11/11 00:57:12;;;;;;;79.53;33.27;;;-0.50;99.90;;;;;;4125161;28;20276;-63
2021/11/11 00:59:13;;;;;;;88.67;37.27;;;-0.50;99.90;;;;;;4123661;28;20276;-59
2021/11/11 01:01:14;;;;;;;76.40;36.13;;;-0.50;99.90;;;;;;4123161;28;20276;-62
2021/11/11 01:03:19;;;;;;;84.77;35.27;;;-0.40;99.90;;;;;;4108136;28;20375;-62
2021/11/11 01:05:21;;;;;;;80.80;35.00;;;-0.30;99.90;;;;;;4108159;28;20292;-62
2021/11/11 01:07:22;;;;;;;78.40;35.13;;;-0.20;99.90;;;;;;4108531;28;20253;-62
2021/11/11 01:09:23;;;;;;;85.27;33.33;;;-0.20;99.90;;;;;;4106506;28;20265;-65
2021/11/11 01:11:26;;;;;;;83.63;33.97;;;-0.10;99.90;;;;;;4108419;28;20288;-63
2021/11/11 01:13:27;;;;;;;88.10;33.83;;;-0.10;99.90;;;;;;4107447;28;20339;-59
2021/11/11 01:15:31;;;;;;;203.40;39.27;;;-0.20;99.90;;;;;;4108324;28;20789;-60
2021/11/11 01:17:33;;;;;;;80.53;32.20;;;-0.20;99.90;;;;;;4107595;28;20315;-63
2021/11/11 01:19:34;;;;;;;90.60;33.13;;;-0.20;99.90;;;;;;4108656;28;20689;-62
2021/11/11 01:21:35;;;;;;;93.30;35.43;;;-0.20;99.90;;;;;;4107839;28;20284;-62
2021/11/11 01:23:36;;;;;;;96.50;34.90;;;-0.10;99.90;;;;;;4108748;28;20711;-61
2021/11/11 01:25:39;;;;;;;80.73;31.23;;;-0.10;99.90;;;;;;4106585;28;20690;-62
2021/11/11 01:27:41;;;;;;;82.97;34.57;;;-0.10;99.90;;;;;;4108557;28;20277;-61
2021/11/11 01:29:43;;;;;;;84.07;33.77;;;-0.10;99.90;;;;;;4107976;28;20673;-62
2021/11/11 01:31:45;;;;;;;89.17;34.63;;;0.00;99.90;;;;;;4111627;28;20299;-62
2021/11/11 01:33:46;;;;;;;76.67;32.23;;;0.00;99.90;;;;;;4123902;28;20310;-63
2021/11/11 01:35:47;;;;;;;82.23;32.37;;;-0.10;99.90;;;;;;4124020;28;20256;-63
2021/11/11 01:37:49;;;;;;;70.77;30.17;;;-0.10;99.90;;;;;;4124043;28;20280;-61
2021/11/11 01:39:50;;;;;;;62.40;26.23;;;0.00;99.90;;;;;;4123656;28;20268;-62
2021/11/11 01:41:52;;;;;;;54.30;24.90;;;-0.10;99.90;;;;;;4124235;28;20342;-62
2021/11/11 01:43:53;;;;;;;44.40;21.47;;;-0.10;99.90;;;;;;4122624;28;20304;-60
2021/11/11 01:45:54;;;;;;;48.37;22.53;;;-0.10;99.90;;;;;;4120230;28;20273;-67
2021/11/11 01:47:56;;;;;;;43.87;19.90;;;-0.10;99.90;;;;;;4107491;28;20288;-61
2021/11/11 01:49:57;;;;;;;45.70;20.90;;;-0.20;99.90;;;;;;4116772;28;20322;-63
2021/11/11 01:51:58;;;;;;;48.83;21.23;;;-0.20;99.90;;;;;;4122122;28;20323;-62
2021/11/11 01:54:00;;;;;;;42.97;20.57;;;-0.20;99.90;;;;;;4123847;28;20610;-64
2021/11/11 01:56:01;;;;;;;38.10;19.87;;;-0.20;99.90;;;;;;4124649;28;20284;-62
2021/11/11 01:58:04;;;;;;;36.50;19.07;;;-0.20;99.90;;;;;;4126865;28;20739;-62
2021/11/11 02:00:14;;;;;;;35.63;18.27;;;-0.30;99.90;;;;;;4126396;28;20260;-70
2021/11/11 02:02:27;;;;;;;36.13;18.25;;;-0.30;99.90;;;;;;4126931;28;20268;-66
2021/11/11 02:04:28;;;;;;;31.50;17.27;;;-0.40;99.90;;;;;;4126477;28;20097;-69
2021/11/11 02:06:29;;;;;;;35.63;18.77;;;-0.40;99.90;;;;;;4126915;28;20318;-62
2021/11/11 02:08:31;;;;;;;33.47;17.77;;;-0.60;99.90;;;;;;4126582;28;20681;-67
2021/11/11 02:10:33;;;;;;;34.17;17.33;;;-0.60;99.90;;;;;;4126607;28;20283;-64
2021/11/11 02:12:34;;;;;;;31.00;17.17;;;-0.70;99.90;;;;;;4126546;28;20310;-59
2021/11/11 02:14:35;;;;;;;33.87;17.73;;;-0.80;99.90;;;;;;4126834;28;20264;-70
2021/11/11 02:16:37;;;;;;;38.23;17.43;;;-0.80;99.90;;;;;;4126653;28;20741;-59
2021/11/11 02:18:38;;;;;;;39.97;18.57;;;-0.80;99.90;;;;;;4126172;28;20276;-62
2021/11/11 02:20:42;;;;;;;37.53;17.80;;;-0.90;99.90;;;;;;4126669;28;20268;-61
2021/11/11 02:22:45;;;;;;;35.10;17.17;;;-1.00;99.90;;;;;;4112449;28;20296;-62
2021/11/11 02:24:46;;;;;;;35.30;17.63;;;-1.00;99.90;;;;;;4109833;28;20355;-62
2021/11/11 02:26:51;;;;;;;34.87;16.50;;;-1.00;99.90;;;;;;4109971;28;20688;-65
2021/11/11 02:28:52;;;;;;;35.73;17.40;;;-1.10;99.90;;;;;;4111372;28;20280;-63
2021/11/11 02:30:54;;;;;;;28.37;15.70;;;-1.10;99.90;;;;;;4109549;28;20268;-58
2021/11/11 02:32:56;;;;;;;32.70;16.10;;;-1.20;99.90;;;;;;4119761;28;20315;-61
2021/11/11 02:34:57;;;;;;;30.83;16.30;;;-1.20;99.90;;;;;;4126053;28;20279;-60
2021/11/11 02:37:02;;;;;;;32.23;15.40;;;-1.20;99.90;;;;;;4126577;28;20323;-63
2021/11/11 02:39:03;;;;;;;32.53;16.07;;;-1.30;99.90;;;;;;4125021;28;20810;-60
2021/11/11 02:41:04;;;;;;;29.43;15.43;;;-1.40;99.90;;;;;;4127203;28;20330;-62
2021/11/11 02:43:06;;;;;;;33.80;15.43;;;-1.40;99.90;;;;;;4125389;28;20792;-61
2021/11/11 02:45:13;;;;;;;31.20;15.90;;;-1.40;99.90;;;;;;4126545;28;20287;-59
2021/11/11 02:47:15;;;;;;;37.53;15.30;;;-1.40;99.90;;;;;;4126123;28;20298;-59
2021/11/11 02:49:16;;;;;;;34.63;17.43;;;-1.40;99.90;;;;;;4126226;28;20303;-63
2021/11/11 02:51:17;;;;;;;38.20;16.80;;;-1.50;99.90;;;;;;4126366;28;20264;-60
2021/11/11 02:53:19;;;;;;;32.03;15.30;;;-1.40;99.90;;;;;;4126203;28;20272;-62
2021/11/11 02:55:20;;;;;;;35.50;16.00;;;-1.50;99.90;;;;;;4125038;28;20748;-59
2021/11/11 02:57:23;;;;;;;30.10;15.10;;;-1.40;99.90;;;;;;4125853;28;20268;-60
2021/11/11 02:59:24;;;;;;;30.93;15.73;;;-1.50;99.90;;;;;;4126954;28;20660;-61
2021/11/11 03:01:25;;;;;;;31.90;17.07;;;-1.50;99.90;;;;;;4125740;28;20281;-61
2021/11/11 03:03:30;;;;;;;30.37;15.10;;;-1.50;99.90;;;;;;4125855;28;20334;-64
2021/11/11 03:05:33;;;;;;;35.90;15.97;;;-1.60;99.90;;;;;;4119906;28;20852;-61
2021/11/11 03:07:35;;;;;;;31.20;15.57;;;-1.70;99.90;;;;;;4110078;28;21110;-61
2021/11/11 03:09:36;;;;;;;31.93;15.30;;;-1.80;99.90;;;;;;4109126;28;20268;-62
2021/11/11 03:11:38;;;;;;;30.27;15.67;;;-1.80;99.90;;;;;;4110078;28;20292;-61
2021/11/11 03:13:39;;;;;;;33.07;14.70;;;-1.80;99.90;;;;;;4108518;28;20281;-61
2021/11/11 03:15:42;;;;;;;34.70;15.20;;;-1.80;99.90;;;;;;4110558;28;20347;-62
2021/11/11 03:17:44;;;;;;;32.47;16.47;;;-1.80;99.90;;;;;;4108636;28;20311;-62
2021/11/11 03:19:46;;;;;;;33.07;15.77;;;-1.80;99.90;;;;;;4109870;28;20272;-66
2021/11/11 03:21:47;;;;;;;29.87;14.90;;;-1.80;99.90;;;;;;4109618;28;20279;-62
2021/11/11 03:23:48;;;;;;;38.60;18.50;;;-1.80;99.90;;;;;;4109085;28;20312;-66
2021/11/11 03:25:50;;;;;;;34.13;16.87;;;-1.80;99.90;;;;;;4113372;28;20842;-63
2021/11/11 03:27:52;;;;;;;30.90;15.40;;;-1.80;99.90;;;;;;4125243;28;20773;-64
2021/11/11 03:29:54;;;;;;;35.47;16.60;;;-1.80;99.90;;;;;;4126013;28;20303;-64
2021/11/11 03:31:56;;;;;;;30.67;15.43;;;-1.80;99.90;;;;;;4124267;28;20275;-61
2021/11/11 03:33:57;;;;;;;29.17;15.30;;;-1.80;99.90;;;;;;4124919;28;20322;-59
2021/11/11 03:35:58;;;;;;;35.30;15.43;;;-1.80;99.90;;;;;;4124688;28;20276;-60
2021/11/11 03:38:05;;;;;;;30.43;14.27;;;-1.90;99.90;;;;;;4125034;28;20330;-62
2021/11/11 03:40:10;;;;;;;34.43;15.63;;;-1.90;99.90;;;;;;4107882;28;20306;-62
2021/11/11 03:42:13;;;;;;;31.13;15.63;;;-1.90;99.90;;;;;;4108847;28;20697;-61
2021/11/11 03:44:15;;;;;;;32.20;15.17;;;-1.90;99.90;;;;;;4108154;28;20855;-62
2021/11/11 03:46:17;;;;;;;32.13;16.03;;;-1.90;99.90;;;;;;4109803;28;20816;-63
2021/11/11 03:48:18;;;;;;;33.03;15.73;;;-1.90;99.90;;;;;;4108336;28;20347;-64
2021/11/11 03:50:20;;;;;;;32.40;16.23;;;-1.90;99.90;;;;;;4109181;28;20769;-63
2021/11/11 03:52:22;;;;;;;34.00;15.50;;;-1.90;99.90;;;;;;4108636;28;20265;-62
2021/11/11 03:54:24;;;;;;;33.73;14.00;;;-1.90;99.90;;;;;;4109004;28;20285;-61
2021/11/11 03:56:26;;;;;;;25.30;13.00;;;-2.00;99.90;;;;;;4108722;28;20268;-62
2021/11/11 03:58:27;;;;;;;31.47;13.87;;;-1.90;99.90;;;;;;4108949;28;20276;-61
2021/11/11 04:00:29;;;;;;;28.53;13.23;;;-1.90;99.90;;;;;;4109012;28;20253;-61
2021/11/11 04:02:30;;;;;;;32.83;15.40;;;-1.90;99.90;;;;;;4108102;28;20327;-62
2021/11/11 04:04:32;;;;;;;29.33;15.80;;;-1.90;99.90;;;;;;4109328;28;20300;-63
2021/11/11 04:06:34;;;;;;;35.50;15.57;;;-1.90;99.90;;;;;;4107700;28;20293;-63
2021/11/11 04:08:35;;;;;;;28.70;14.33;;;-1.90;99.90;;;;;;4109416;28;20281;-59
2021/11/11 04:10:36;;;;;;;31.57;14.90;;;-1.90;99.90;;;;;;4108020;28;20324;-63
2021/11/11 04:12:37;;;;;;;31.23;15.17;;;-1.90;99.90;;;;;;4121872;28;20399;-62
2021/11/11 04:14:39;;;;;;;34.63;15.33;;;-1.90;99.90;;;;;;4124587;28;20280;-65
2021/11/11 04:16:42;;;;;;;33.13;15.10;;;-2.00;99.90;;;;;;4124780;28;20265;-61
2021/11/11 04:18:43;;;;;;;35.33;15.50;;;-2.00;99.90;;;;;;4122651;28;20292;-62
2021/11/11 04:20:44;;;;;;;31.50;14.53;;;-2.00;99.90;;;;;;4125427;28;20284;-64
2021/11/11 04:22:45;;;;;;;43.00;17.33;;;-2.00;99.90;;;;;;4124129;28;20407;-61
2021/11/11 04:24:47;;;;;;;35.57;15.80;;;-1.90;99.90;;;;;;4124701;28;20326;-63
2021/11/11 04:27:38;;;;;;;36.30;16.13;;;-1.90;99.90;;;;;;4122419;28;20272;-61
2021/11/11 04:29:28;;;;;;;52.60;16.57;;;-2.00;99.90;;;;;;4119773;28;20629;-67
2021/11/11 04:31:37;;;;;;;41.57;15.97;;;-2.00;99.90;;;;;;4123638;28;20272;-62
2021/11/11 04:33:41;;;;;;;37.27;15.33;;;-2.10;99.90;;;;;;4124255;28;20280;-61
2021/11/11 04:35:46;;;;;;;39.67;17.10;;;-2.10;99.90;;;;;;4122454;28;20660;-61
2021/11/11 04:44:39;;;;;;;87.80;20.07;;;-2.20;99.90;;;;;;4110538;28;20431;-62
2021/11/11 05:01:11;;;;;;;47.93;16.50;;;-2.70;99.90;;;;;;4122904;28;20315;-62
2021/11/11 05:05:13;;;;;;;40.97;17.07;;;-2.70;99.90;;;;;;4124183;28;20276;-66
2021/11/11 05:07:14;;;;;;;42.27;17.67;;;-2.60;99.90;;;;;;4122797;28;20289;-62
2021/11/11 05:09:16;;;;;;;53.47;20.37;;;-2.60;99.90;;;;;;4123917;28;20322;-63
2021/11/11 05:11:17;;;;;;;124.07;23.23;;;-2.60;99.90;;;;;;4123362;28;20292;-61
2021/11/11 05:13:19;;;;;;;61.37;20.57;;;-2.60;99.90;;;;;;4124860;28;20268;-61
2021/11/11 05:15:22;;;;;;;75.23;24.10;;;-2.60;99.90;;;;;;4123414;28;20672;-63
2021/11/11 05:17:24;;;;;;;116.07;23.03;;;-2.60;99.90;;;;;;4124281;28;20272;-60
2021/11/11 05:19:25;;;;;;;121.23;25.87;;;-2.60;99.90;;;;;;4120740;28;20784;-62
2021/11/11 05:21:28;;;;;;;144.57;26.93;;;-2.60;99.90;;;;;;4123661;28;20288;-61
2021/11/11 05:23:29;;;;;;;187.33;30.50;;;-2.60;99.90;;;;;;4112743;28;21292;-61
2021/11/11 05:25:32;;;;;;;261.03;36.90;;;-2.70;99.90;;;;;;4107658;28;20754;-62
2021/11/11 05:27:35;;;;;;;243.67;30.83;;;-2.70;99.90;;;;;;4114189;28;20752;-62
2021/11/11 05:29:37;;;;;;;214.43;36.87;;;-2.70;99.90;;;;;;4124134;28;20791;-61
2021/11/11 05:31:38;;;;;;;202.67;33.87;;;-2.70;99.90;;;;;;4125598;28;20257;-62
2021/11/11 05:33:39;;;;;;;208.83;32.43;;;-2.70;99.90;;;;;;4126818;28;20751;-61
2021/11/11 05:35:40;;;;;;;234.03;31.07;;;-2.70;99.90;;;;;;4126489;28;20252;-62
2021/11/11 05:37:42;;;;;;;249.60;33.47;;;-2.70;99.90;;;;;;4125719;28;20347;-61
2021/11/11 05:39:43;;;;;;;201.43;30.47;;;-2.80;99.90;;;;;;4126916;28;20719;-61
2021/11/11 05:41:44;;;;;;;220.30;31.70;;;-2.80;99.90;;;;;;4125770;28;20288;-61
2021/11/11 05:43:47;;;;;;;165.90;29.83;;;-2.80;99.90;;;;;;4127413;28;20296;-62
2021/11/11 05:45:48;;;;;;;133.00;30.10;;;-2.90;99.90;;;;;;4126241;28;20252;-60
2021/11/11 05:47:49;;;;;;;168.80;28.83;;;-2.90;99.90;;;;;;4123962;28;20299;-62
2021/11/11 05:49:51;;;;;;;217.23;29.77;;;-2.90;99.90;;;;;;4125336;28;20288;-59
2021/11/11 05:51:53;;;;;;;110.40;29.57;;;-2.90;99.90;;;;;;4126467;28;20354;-62
2021/11/11 05:53:54;;;;;;;101.23;29.03;;;-2.90;99.90;;;;;;4125625;28;20764;-61
2021/11/11 05:55:55;;;;;;;301.83;35.67;;;-2.80;99.90;;;;;;4125926;28;21046;-63
2021/11/11 05:57:57;;;;;;;116.40;29.33;;;-2.90;99.90;;;;;;4125926;28;20276;-62
2021/11/11 05:59:58;;;;;;;135.00;27.23;;;-2.80;99.90;;;;;;4126618;28;20764;-62
2021/11/11 06:02:00;;;;;;;193.07;31.10;;;-2.80;99.90;;;;;;4126072;28;20334;-62
2021/11/11 06:04:02;;;;;;;184.10;31.10;;;-2.80;99.90;;;;;;4126018;28;20350;-64
2021/11/11 06:06:03;;;;;;;168.50;31.87;;;-2.80;99.90;;;;;;4126497;28;20263;-63
2021/11/11 06:08:05;;;;;;;126.97;30.20;;;-2.80;99.90;;;;;;4125999;28;20338;-63
2021/11/11 06:10:07;;;;;;;123.50;31.00;;;-2.80;99.90;;;;;;4126165;28;20284;-63
2021/11/11 06:12:09;;;;;;;163.60;33.43;;;-2.70;99.90;;;;;;4125400;28;20922;-61
2021/11/11 06:14:10;;;;;;;147.20;33.87;;;-2.60;99.90;;;;;;4126645;28;20345;-61
2021/11/11 06:16:11;;;;;;;111.93;31.63;;;-2.70;99.90;;;;;;4125317;28;20314;-62
2021/11/11 06:18:13;;;;;;;116.10;33.87;;;-2.70;99.90;;;;;;4126437;28;20299;-61
2021/11/11 06:20:15;;;;;;;169.70;34.27;;;-2.70;99.90;;;;;;4116994;28;20354;-61
2021/11/11 06:22:19;;;;;;;125.13;33.97;;;-2.60;99.90;;;;;;4109720;28;20604;-60
2021/11/11 06:24:20;;;;;;;117.37;31.97;;;-2.60;99.90;;;;;;4109270;28;20339;-60
2021/11/11 06:26:23;;;;;;;167.03;35.27;;;-2.50;99.90;;;;;;4110676;28;20284;-62
2021/11/11 06:28:24;;;;;;;205.73;38.00;;;-2.50;99.90;;;;;;4109737;28;20336;-61
2021/11/11 06:30:25;;;;;;;172.27;34.77;;;-2.50;99.90;;;;;;4110882;28;20299;-62
2021/11/11 06:32:29;;;;;;;155.17;37.67;;;-2.60;99.90;;;;;;4108040;28;20431;-62
2021/11/11 06:34:30;;;;;;;173.33;33.37;;;-2.60;99.90;;;;;;4123548;28;20256;-63
2021/11/11 06:36:32;;;;;;;235.13;36.27;;;-2.60;99.90;;;;;;4126042;28;20314;-61
2021/11/11 06:38:33;;;;;;;154.33;34.00;;;-2.50;99.90;;;;;;4126431;28;20657;-61
2021/11/11 06:40:34;;;;;;;190.37;37.00;;;-2.40;99.90;;;;;;4126042;28;20770;-62
2021/11/11 06:42:36;;;;;;;232.73;40.80;;;-2.50;99.90;;;;;;4124872;28;20732;-65
2021/11/11 06:44:41;;;;;;;242.17;44.80;;;-2.60;99.90;;;;;;4122343;28;20354;-62
2021/11/11 06:46:43;;;;;;;266.33;51.23;;;-2.60;99.90;;;;;;4125119;28;20668;-65
2021/11/11 06:48:44;;;;;;;266.13;49.73;;;-2.60;99.90;;;;;;4124111;28;20319;-62
2021/11/11 06:50:45;;;;;;;422.33;62.73;;;-2.60;99.90;;;;;;4125192;28;20268;-62
2021/11/11 06:52:47;;;;;;;322.40;54.23;;;-2.50;99.90;;;;;;4126817;28;20268;-64
2021/11/11 06:54:48;;;;;;;436.93;57.87;;;-2.50;99.90;;;;;;4125133;28;20295;-63
2021/11/11 06:56:49;;;;;;;433.43;61.20;;;-2.50;99.90;;;;;;4125703;28;20769;-60
2021/11/11 06:58:50;;;;;;;201.70;47.67;;;-2.50;99.90;;;;;;4125508;28;20752;-59
2021/11/11 07:00:54;;;;;;;402.10;54.47;;;-2.50;99.90;;;;;;4126316;28;20307;-61
2021/11/11 07:02:55;;;;;;;270.00;44.53;;;-2.40;99.90;;;;;;4124558;28;20823;-61
2021/11/11 07:04:56;;;;;;;198.80;41.70;;;-2.40;99.90;;;;;;4126024;28;20307;-60
2021/11/11 07:06:58;;;;;;;353.20;47.63;;;-2.30;99.90;;;;;;4124835;28;20342;-60
2021/11/11 07:09:00;;;;;;;197.63;35.50;;;-2.30;99.90;;;;;;4124582;28;20749;-64
2021/11/11 07:11:01;;;;;;;251.90;39.80;;;-2.30;99.90;;;;;;4125085;28;21088;-61
2021/11/11 07:13:03;;;;;;;163.83;37.03;;;-2.30;99.90;;;;;;4125260;28;21130;-61
2021/11/11 07:15:06;;;;;;;239.27;36.20;;;-2.20;99.90;;;;;;4125388;28;20334;-62
2021/11/11 07:17:08;;;;;;;231.70;34.93;;;-2.20;99.90;;;;;;4124882;28;20622;-63
2021/11/11 07:19:09;;;;;;;196.47;29.07;;;-2.10;99.90;;;;;;4125500;28;20323;-62
2021/11/11 07:21:10;;;;;;;262.37;27.83;;;-2.10;99.90;;;;;;4125035;28;20327;-63
2021/11/11 07:23:14;;;;;;;258.30;28.37;;;-2.10;99.90;;;;;;4125040;28;20761;-63
2021/11/11 07:25:17;;;;;;;100.20;20.30;;;-2.20;99.90;;;;;;4125014;28;20304;-62
2021/11/11 07:27:18;;;;;;;183.80;23.37;;;-2.20;99.90;;;;;;4126535;28;20292;-63
2021/11/11 07:29:20;;;;;;;289.17;24.97;;;-2.30;99.90;;;;;;4124521;28;20704;-63
2021/11/11 07:31:25;;;;;;;82.93;18.33;;;-2.30;99.90;;;;;;4125977;28;20268;-63
2021/11/11 07:33:26;;;;;;;104.13;20.77;;;-2.30;99.90;;;;;;4124246;28;20279;-64
2021/11/11 07:35:28;;;;;;;111.80;19.37;;;-2.30;99.90;;;;;;4125952;28;20668;-63
2021/11/11 07:37:29;;;;;;;141.03;20.43;;;-2.20;99.90;;;;;;4124009;28;20264;-62
2021/11/11 07:39:30;;;;;;;185.47;22.70;;;-2.20;99.90;;;;;;4125238;28;20260;-62
2021/11/11 07:41:33;;;;;;;103.73;17.33;;;-2.10;99.90;;;;;;4124287;28;20310;-62
2021/11/11 07:43:34;;;;;;;87.23;17.40;;;-2.10;99.90;;;;;;4124913;28;20307;-62
2021/11/11 07:45:36;;;;;;;198.43;25.43;;;-2.10;99.90;;;;;;4124880;28;20300;-64
2021/11/11 07:47:37;;;;;;;177.17;23.10;;;-2.10;99.90;;;;;;4124689;28;20338;-63
2021/11/11 07:49:39;;;;;;;93.97;20.30;;;-2.10;99.90;;;;;;4132630;28;20736;-63
2021/11/11 07:51:40;;;;;;;70.33;22.27;;;-2.10;99.90;;;;;;4140369;28;20752;-62
2021/11/11 07:53:41;;;;;;;81.33;19.17;;;-1.90;99.90;;;;;;4140510;28;20275;-63
2021/11/11 07:55:43;;;;;;;219.27;24.97;;;-1.90;99.90;;;;;;4139868;28;20337;-63
2021/11/11 07:57:45;;;;;;;159.30;20.33;;;-1.90;99.90;;;;;;4125744;28;20704;-63
2021/11/11 07:59:48;;;;;;;143.23;19.60;;;-1.90;99.90;;;;;;4124220;28;20276;-64
2021/11/11 08:01:49;;;;;;;196.30;22.43;;;-1.90;99.90;;;;;;4125087;28;20769;-63
2021/11/11 08:03:50;;;;;;;137.33;19.90;;;-1.90;99.90;;;;;;4123585;28;20371;-63
2021/11/11 08:05:51;;;;;;;356.20;31.63;;;-1.80;99.90;;;;;;4125008;28;20260;-62
2021/11/11 08:07:53;;;;;;;69.13;17.23;;;-1.80;99.90;;;;;;4123773;28;20779;-63
2021/11/11 08:09:54;;;;;;;50.50;16.13;;;-1.80;99.90;;;;;;4125230;28;20265;-62
2021/11/11 08:11:55;;;;;;;64.50;15.20;;;-1.70;99.90;;;;;;4124335;28;20683;-61
2021/11/11 08:13:56;;;;;;;37.40;15.93;;;-1.60;99.90;;;;;;4125031;28;20343;-62
2021/11/11 08:15:57;;;;;;;33.43;15.43;;;-1.60;99.90;;;;;;4122991;28;20268;-63
2021/11/11 08:17:59;;;;;;;32.73;13.83;;;-1.50;99.90;;;;;;4119879;28;20274;-66
2021/11/11 08:20:00;;;;;;;53.63;14.40;;;-1.50;99.90;;;;;;4123483;28;21327;-62
2021/11/11 08:22:01;;;;;;;30.70;14.17;;;-1.50;99.90;;;;;;4126479;28;20349;-66
2021/11/11 08:24:03;;;;;;;27.97;13.50;;;-1.40;99.90;;;;;;4141215;28;20276;-63
2021/11/11 08:26:04;;;;;;;34.33;15.23;;;-1.40;99.90;;;;;;4140052;28;20271;-62
2021/11/11 08:28:05;;;;;;;50.47;18.90;;;-1.30;99.90;;;;;;4141845;28;20295;-62
2021/11/11 08:30:10;;;;;;;41.63;17.27;;;-1.20;99.90;;;;;;4124939;28;20707;-63
2021/11/11 08:32:12;;;;;;;30.67;15.17;;;-1.10;99.90;;;;;;4125048;28;20268;-61
2021/11/11 08:34:14;;;;;;;29.53;14.20;;;-1.10;99.90;;;;;;4124118;28;20275;-60
2021/11/11 08:36:15;;;;;;;27.77;12.97;;;-1.00;99.90;;;;;;4125061;28;20632;-60
2021/11/11 08:38:17;;;;;;;25.77;12.97;;;-1.00;99.90;;;;;;4124068;28;20280;-63
2021/11/11 08:40:18;;;;;;;30.83;14.80;;;-0.90;99.90;;;;;;4125487;28;20632;-63
2021/11/11 08:42:20;;;;;;;32.53;15.17;;;-0.80;99.90;;;;;;4123125;28;20354;-66
2021/11/11 08:44:21;;;;;;;27.40;13.30;;;-0.80;99.90;;;;;;4124990;28;20673;-64
2021/11/11 08:46:24;;;;;;;25.80;11.93;;;-0.70;99.90;;;;;;4123566;28;20291;-63
2021/11/11 08:48:25;;;;;;;26.13;12.90;;;-0.70;99.90;;;;;;4122816;28;20347;-63
2021/11/11 08:50:30;;;;;;;29.73;13.07;;;-0.70;99.90;;;;;;4124046;28;20256;-63
2021/11/11 08:52:33;;;;;;;34.70;15.23;;;-0.60;99.90;;;;;;4124357;28;20279;-62
2021/11/11 08:54:34;;;;;;;32.10;14.67;;;-0.50;99.90;;;;;;4123888;28;20405;-63
2021/11/11 08:56:35;;;;;;;33.77;16.20;;;-0.40;99.90;;;;;;4123951;28;20354;-63
2021/11/11 08:58:37;;;;;;;37.23;19.10;;;-0.30;99.90;;;;;;4125104;28;20320;-62
2021/11/11 09:00:49;;;;;;;44.03;21.70;;;-0.30;99.90;;;;;;4124172;28;20268;-62
2021/11/11 09:02:54;;;;;;;35.23;16.40;;;-0.20;99.90;;;;;;4125089;28;20298;-62
2021/11/11 09:04:56;;;;;;;30.70;13.43;;;-0.10;99.90;;;;;;4121772;28;20688;-62
2021/11/11 09:07:00;;;;;;;28.53;13.37;;;-0.10;99.90;;;;;;4127547;28;20283;-62
2021/11/11 09:09:01;;;;;;;37.63;15.47;;;0.00;99.90;;;;;;4126266;28;20276;-62
2021/11/11 09:11:03;;;;;;;22.57;11.57;;;0.00;99.90;;;;;;4125768;28;20276;-62
2021/11/11 09:13:04;;;;;;;26.13;12.87;;;0.10;99.90;;;;;;4110588;28;20277;-64
2021/11/11 09:15:09;;;;;;;24.57;13.17;;;0.10;99.90;;;;;;4111814;28;20288;-62
2021/11/11 09:17:10;;;;;;;29.70;13.47;;;0.20;99.90;;;;;;4110463;28;20284;-62
2021/11/11 09:19:12;;;;;;;30.37;12.87;;;0.20;99.90;;;;;;4110359;28;20323;-62
2021/11/11 09:21:13;;;;;;;23.93;12.23;;;0.20;99.90;;;;;;4113078;28;20299;-63
2021/11/11 09:23:14;;;;;;;26.30;12.70;;;0.30;99.90;;;;;;4111400;28;20993;-62
2021/11/11 09:25:16;;;;;;;26.37;13.10;;;0.30;99.90;;;;;;4121985;28;20738;-61
2021/11/11 09:27:18;;;;;;;29.67;13.67;;;0.30;99.90;;;;;;4126497;28;20358;-62
2021/11/11 09:29:19;;;;;;;32.53;14.17;;;0.40;99.90;;;;;;4126844;28;21022;-62
2021/11/11 09:31:23;;;;;;;27.60;12.70;;;0.50;99.90;;;;;;4123896;28;20260;-62
2021/11/11 09:33:24;;;;;;;27.13;12.87;;;0.60;99.90;;;;;;4126595;28;20272;-63
2021/11/11 09:35:26;;;;;;;24.63;13.70;;;0.60;99.90;;;;;;4126796;28;20272;-63
2021/11/11 09:37:27;;;;;;;33.07;14.10;;;0.70;99.90;;;;;;4126599;28;20283;-62
2021/11/11 09:39:29;;;;;;;26.07;13.63;;;0.70;99.90;;;;;;4125931;28;20672;-62
2021/11/11 09:41:31;;;;;;;28.00;13.40;;;0.70;99.90;;;;;;4126750;28;20331;-62
2021/11/11 09:43:34;;;;;;;27.50;13.93;;;0.80;99.90;;;;;;4125888;28;20346;-63
2021/11/11 09:45:35;;;;;;;31.80;14.20;;;0.80;99.90;;;;;;4126885;28;20858;-62
2021/11/11 09:47:37;;;;;;;30.07;14.87;;;0.90;99.90;;;;;;4125817;28;20334;-61
2021/11/11 09:49:38;;;;;;;31.17;16.77;;;0.90;99.90;;;;;;4127393;28;20279;-64
2021/11/11 09:51:41;;;;;;;29.87;15.50;;;1.00;99.90;;;;;;4139231;28;20290;-63
2021/11/11 09:54:07;;;;;;;33.63;15.57;;;1.00;99.90;;;;;;4126065;28;20350;-63
2021/11/11 09:58:41;;;;;;;29.87;14.17;;;1.10;99.90;;;;;;4126920;28;20322;-63
2021/11/11 10:00:43;;;;;;;25.17;13.30;;;1.20;99.90;;;;;;4125220;28;20276;-62
2021/11/11 10:02:45;;;;;;;28.00;14.60;;;1.20;99.90;;;;;;4126447;28;20319;-63
2021/11/11 10:04:46;;;;;;;28.23;14.43;;;1.20;99.90;;;;;;4122867;28;20284;-63
2021/11/11 10:06:48;;;;;;;25.17;13.23;;;1.30;99.90;;;;;;4139735;28;20271;-61
2021/11/11 10:08:58;;;;;;;29.33;13.63;;;1.30;99.90;;;;;;4137351;28;20276;-62
2021/11/11 10:10:59;;;;;;;36.10;16.00;;;1.40;99.90;;;;;;4125058;28;20835;-64
2021/11/11 10:13:28;;;;;;;31.17;15.40;;;1.40;99.90;;;;;;4124323;28;20810;-62
2021/11/11 10:15:29;;;;;;;32.33;15.23;;;1.50;99.90;;;;;;4123293;28;20323;-62
2021/11/11 10:17:42;;;;;;;29.83;15.37;;;1.50;99.90;;;;;;4124703;28;20331;-62
2021/11/11 10:19:50;;;;;;;28.20;14.47;;;1.50;99.90;;;;;;4129857;28;20279;-63
2021/11/11 10:22:01;;;;;;;35.40;14.97;;;1.50;99.90;;;;;;4126029;28;20309;-63
2021/11/11 10:24:17;;;;;;;25.93;13.67;;;1.50;99.90;;;;;;4128192;28;20264;-64
2021/11/11 10:26:27;;;;;;;27.43;14.03;;;1.60;99.90;;;;;;4136053;28;20311;-63
2021/11/11 10:28:41;;;;;;;30.30;14.13;;;1.60;99.90;;;;;;4125810;28;20292;-63
2021/11/11 10:30:42;;;;;;;27.30;13.70;;;1.60;99.90;;;;;;4123710;28;20101;-61
2021/11/11 10:32:49;;;;;;;33.67;15.90;;;1.60;99.90;;;;;;4125549;28;20345;-63
2021/11/11 10:34:56;;;;;;;29.50;15.13;;;1.70;99.90;;;;;;4122987;28;20275;-63
2021/11/11 10:36:59;;;;;;;28.70;13.40;;;1.70;99.90;;;;;;4125256;28;20355;-62
2021/11/11 10:39:24;;;;;;;30.53;14.20;;;1.70;99.90;;;;;;4124250;28;20284;-63
2021/11/11 10:41:32;;;;;;;29.33;12.90;;;1.80;99.90;;;;;;4124300;28;20350;-63
2021/11/11 10:43:33;;;;;;;29.60;14.10;;;1.70;99.90;;;;;;4123025;28;20338;-63
2021/11/11 10:45:38;;;;;;;34.03;15.53;;;1.80;99.90;;;;;;4125219;28;20786;-64